Sainte-Rosalie, Canada
Current Conditions -  °F | °C
As of 12:01 PM on Saturday 20 Dec 2014 (Local Time) from CYHU Reporting Station
Haze Haze  
Wind Chill:   Ceiling: 600
Heat Index: 12°   Visibility: 4mi
Dew Point: 10°   Wind: 8mph
Humidity: 92%   Direction: 10°N
Pressure: 30.35"   Gusts: NA
Location:  45.65°N, 72.9°W
Report Text: CYHU 201701Z AUTO 01007KT 4SM BR BKN006 M11/M12 A3035 RMK SLP280
Loading
Personal Weather Stations






























Interactive Weather Map New forecast layout! Learn more

10-Day Weather Forecast

Advertisements
Track Severe Weather on mobile